Time;durP1;ratioP1;P1;durP2;ratioP2;P2;SDS_P1;SDS_P2;PMS_P1;PMS_P2;Temp;Humidity;BMP_temperature;BMP_pressure;BME280_temperature;BME280_humidity;BME280_pressure;Samples;Min_cycle;Max_cycle;Signal;HPM_P1;HPM_P2
2022/08/25 00:01:26;;;;;;;7.47;4.77;;;23.80;95.50;;;;;;5092112;28;20431;-39
2022/08/25 00:03:52;;;;;;;5.83;4.90;;;23.70;95.90;;;;;;5091885;28;20956;-38
2022/08/25 00:06:19;;;;;;;4.20;3.90;;;23.60;96.20;;;;;;5092027;28;20426;-42
2022/08/25 00:08:45;;;;;;;5.50;3.87;;;23.60;96.10;;;;;;5090866;28;20469;-39
2022/08/25 00:11:18;;;;;;;4.33;3.93;;;23.60;96.50;;;;;;5092066;28;20434;-38
2022/08/25 00:13:46;;;;;;;5.03;4.57;;;23.50;96.60;;;;;;5090485;28;20520;-40
2022/08/25 00:16:13;;;;;;;5.20;4.70;;;23.50;96.60;;;;;;5091947;28;20488;-40
2022/08/25 00:18:41;;;;;;;5.13;4.63;;;23.50;96.60;;;;;;5091064;28;20426;-39
2022/08/25 00:21:07;;;;;;;5.90;4.13;;;23.50;96.00;;;;;;5087794;28;20443;-43
2022/08/25 00:23:33;;;;;;;5.23;3.97;;;23.50;95.60;;;;;;5091706;28;20475;-40
2022/08/25 00:26:00;;;;;;;4.87;4.37;;;23.50;95.80;;;;;;5091809;28;20975;-39
2022/08/25 00:28:25;;;;;;;6.97;4.50;;;23.60;95.90;;;;;;5090456;28;20426;-38
2022/08/25 00:30:51;;;;;;;4.63;4.17;;;23.60;95.40;;;;;;5090718;28;20429;-38
2022/08/25 00:33:17;;;;;;;4.23;3.90;;;23.60;95.40;;;;;;5091402;28;20188;-40
2022/08/25 00:35:43;;;;;;;8.60;4.27;;;23.60;95.70;;;;;;5089758;28;20190;-38
2022/08/25 00:38:10;;;;;;;4.97;4.53;;;23.60;94.80;;;;;;5090686;28;20411;-39
2022/08/25 00:40:36;;;;;;;4.00;3.70;;;23.60;95.10;;;;;;5091720;28;20545;-39
2022/08/25 00:43:04;;;;;;;4.70;4.30;;;23.60;95.00;;;;;;5091392;28;20476;-39
2022/08/25 00:45:30;;;;;;;4.53;4.17;;;23.60;95.00;;;;;;5091353;28;20933;-41
2022/08/25 00:47:56;;;;;;;4.57;4.20;;;23.60;95.40;;;;;;5090714;28;20429;-38
2022/08/25 00:50:23;;;;;;;5.67;4.20;;;23.60;95.20;;;;;;5090710;28;20818;-39
2022/08/25 00:52:53;;;;;;;4.30;4.00;;;23.60;94.80;;;;;;5091131;28;20260;-40
2022/08/25 00:55:45;;;;;;;4.17;3.40;;;23.60;94.80;;;;;;5091010;28;20528;-39
2022/08/25 00:58:17;;;;;;;4.63;4.23;;;23.50;95.20;;;;;;5086288;28;20460;-38
2022/08/25 01:00:48;;;;;;;5.33;4.17;;;23.50;95.10;;;;;;5090853;28;20414;-39
2022/08/25 01:03:14;;;;;;;4.40;4.00;;;23.50;95.00;;;;;;5091008;28;20438;-39
2022/08/25 01:05:42;;;;;;;5.00;4.50;;;23.50;94.70;;;;;;5090749;28;20798;-38
2022/08/25 01:08:08;;;;;;;5.60;3.83;;;23.50;94.70;;;;;;5090106;28;20422;-40
2022/08/25 01:10:37;;;;;;;4.20;3.90;;;23.50;94.40;;;;;;5090843;28;20425;-38
2022/08/25 01:13:39;;;;;;;4.77;4.37;;;23.50;94.30;;;;;;5090511;28;20432;-42
2022/08/25 01:16:05;;;;;;;4.00;3.60;;;23.50;94.20;;;;;;5090704;28;20414;-39
2022/08/25 01:18:51;;;;;;;5.50;3.93;;;23.50;94.10;;;;;;5090001;28;20418;-44
2022/08/25 01:21:20;;;;;;;4.50;3.97;;;23.50;94.20;;;;;;5088248;28;20245;-41
2022/08/25 01:23:48;;;;;;;4.33;3.93;;;23.60;93.60;;;;;;5090344;28;20426;-39
2022/08/25 01:26:23;;;;;;;4.17;3.80;;;23.70;93.60;;;;;;5090347;28;20935;-38
2022/08/25 01:31:35;;;;;;;4.40;4.00;;;23.60;94.00;;;;;;5088924;28;20422;-45
2022/08/25 01:34:04;;;;;;;4.43;4.03;;;23.50;94.00;;;;;;5090071;28;20442;-44
2022/08/25 01:36:31;;;;;;;4.83;4.20;;;23.50;94.00;;;;;;5090293;28;20422;-38
2022/08/25 01:38:57;;;;;;;4.93;4.53;;;23.50;94.30;;;;;;5089921;28;20434;-39
2022/08/25 01:41:28;;;;;;;5.70;4.20;;;23.40;94.20;;;;;;5089741;28;20916;-41
2022/08/25 01:43:55;;;;;;;4.83;4.40;;;23.40;94.50;;;;;;5090013;28;20888;-39
2022/08/25 01:46:20;;;;;;;3.80;3.50;;;23.40;94.40;;;;;;5089909;28;20411;-40
2022/08/25 01:48:46;;;;;;;4.13;3.83;;;23.40;94.40;;;;;;5088894;28;20465;-38
2022/08/25 01:51:14;;;;;;;3.77;3.47;;;23.40;94.70;;;;;;5090137;28;20283;-40
2022/08/25 01:53:40;;;;;;;4.63;4.27;;;23.50;94.10;;;;;;5090013;28;20418;-38
2022/08/25 01:56:10;;;;;;;4.00;3.70;;;23.40;93.90;;;;;;5088433;28;20867;-41
2022/08/25 01:58:39;;;;;;;4.27;3.40;;;23.50;93.60;;;;;;5089162;28;20183;-45
2022/08/25 02:01:10;;;;;;;4.10;3.70;;;23.50;94.00;;;;;;5089541;28;20429;-38
2022/08/25 02:03:40;;;;;;;4.40;4.00;;;23.50;93.90;;;;;;5089615;28;20423;-39
2022/08/25 02:06:06;;;;;;;3.90;3.57;;;23.40;93.90;;;;;;5089666;28;20803;-39
2022/08/25 02:08:32;;;;;;;4.47;4.03;;;23.30;94.20;;;;;;5089088;28;20893;-37
2022/08/25 02:10:58;;;;;;;6.40;4.13;;;23.40;94.10;;;;;;5089868;28;20450;-45
2022/08/25 02:13:23;;;;;;;5.83;4.00;;;23.30;94.50;;;;;;5089336;28;20424;-45
2022/08/25 02:15:51;;;;;;;6.10;4.07;;;23.30;94.40;;;;;;5089593;28;20177;-39
2022/08/25 02:18:19;;;;;;;4.40;3.80;;;23.40;94.30;;;;;;5088698;28;20362;-38
2022/08/25 02:20:45;;;;;;;5.20;3.67;;;23.30;94.20;;;;;;5089523;28;20419;-39
2022/08/25 02:23:11;;;;;;;4.00;3.70;;;23.40;94.30;;;;;;5089564;28;20415;-39
2022/08/25 02:25:38;;;;;;;4.00;3.70;;;23.40;94.60;;;;;;5089460;28;20425;-43
2022/08/25 02:28:05;;;;;;;5.30;3.50;;;23.40;94.60;;;;;;5088560;28;20609;-41
2022/08/25 02:30:31;;;;;;;5.33;4.07;;;23.40;94.70;;;;;;5089349;28;20881;-39
2022/08/25 02:32:57;;;;;;;4.23;3.80;;;23.30;94.70;;;;;;5089332;28;20423;-39
2022/08/25 02:35:23;;;;;;;4.40;3.97;;;23.30;94.80;;;;;;5089380;28;20979;-38
2022/08/25 02:37:52;;;;;;;6.43;4.00;;;23.30;94.90;;;;;;5088548;28;20184;-38
2022/08/25 02:40:20;;;;;;;4.40;4.00;;;23.20;95.10;;;;;;5089364;28;20414;-39
2022/08/25 02:42:47;;;;;;;4.50;3.60;;;23.20;95.10;;;;;;5087530;28;20921;-38
2022/08/25 02:45:12;;;;;;;4.50;4.13;;;23.20;95.20;;;;;;5089202;28;20427;-39
2022/08/25 02:47:39;;;;;;;4.10;3.80;;;23.20;95.00;;;;;;5088410;28;20422;-42
2022/08/25 02:50:06;;;;;;;4.40;4.00;;;23.20;95.10;;;;;;5088950;28;20265;-41
2022/08/25 02:52:31;;;;;;;4.20;3.90;;;23.10;95.30;;;;;;5089887;28;20790;-39
2022/08/25 02:54:58;;;;;;;4.43;4.07;;;23.10;95.50;;;;;;5093276;28;20418;-40
2022/08/25 02:57:23;;;;;;;4.97;4.53;;;23.10;96.10;;;;;;5090894;28;20192;-42
2022/08/25 02:59:50;;;;;;;5.40;4.90;;;22.90;96.90;;;;;;5093111;28;20422;-41
2022/08/25 03:02:16;;;;;;;7.50;4.27;;;22.70;97.80;;;;;;5093111;28;20196;-40
2022/08/25 03:04:42;;;;;;;5.20;4.70;;;22.60;98.30;;;;;;5092820;28;20467;-39
2022/08/25 03:07:09;;;;;;;4.33;4.00;;;22.40;98.70;;;;;;5092337;28;20650;-39
2022/08/25 03:09:36;;;;;;;4.80;4.40;;;22.40;98.70;;;;;;5091471;28;20594;-40
2022/08/25 03:12:02;;;;;;;4.37;4.07;;;22.30;98.80;;;;;;5092695;28;20590;-39
2022/08/25 03:14:29;;;;;;;5.77;5.23;;;22.20;99.40;;;;;;5092663;28;20460;-38
2022/08/25 03:16:55;;;;;;;4.77;4.37;;;22.10;99.90;;;;;;5090951;28;21047;-39
2022/08/25 03:19:20;;;;;;;5.30;4.80;;;22.10;99.90;;;;;;5092679;28;20556;-41
2022/08/25 03:21:46;;;;;;;7.40;4.97;;;22.00;99.90;;;;;;5092915;28;20559;-41
2022/08/25 03:24:12;;;;;;;5.63;4.90;;;21.90;99.90;;;;;;5092586;28;20267;-38
2022/08/25 03:26:54;;;;;;;5.90;5.30;;;21.70;99.90;;;;;;5092130;28;20552;-40
2022/08/25 03:29:29;;;;;;;6.60;5.80;;;21.70;99.90;;;;;;5092575;28;20207;-41
2022/08/25 03:31:57;;;;;;;8.47;6.00;;;21.60;99.90;;;;;;5092675;28;20835;-40
2022/08/25 03:34:24;;;;;;;6.80;6.30;;;21.50;99.90;;;;;;5092378;28;20429;-43
2022/08/25 03:36:51;;;;;;;7.40;5.90;;;21.50;99.90;;;;;;5091709;28;20784;-41
2022/08/25 03:39:19;;;;;;;6.97;6.17;;;21.40;99.90;;;;;;5092315;28;20438;-38
2022/08/25 03:41:46;;;;;;;7.77;6.70;;;21.30;99.90;;;;;;5092694;28;20426;-39
2022/08/25 03:44:13;;;;;;;6.57;6.03;;;21.20;99.90;;;;;;5092242;28;20467;-41
2022/08/25 03:46:45;;;;;;;8.20;6.53;;;21.20;99.90;;;;;;5091961;28;20434;-41
2022/08/25 03:49:14;;;;;;;6.43;5.93;;;21.20;99.90;;;;;;5092379;28;20462;-40
2022/08/25 03:51:48;;;;;;;7.03;6.43;;;21.10;99.90;;;;;;5092266;28;21111;-40
2022/08/25 03:54:17;;;;;;;6.50;5.90;;;21.00;99.90;;;;;;5092408;28;20453;-39
2022/08/25 03:56:43;;;;;;;7.10;6.50;;;20.80;99.90;;;;;;5090136;28;20457;-40
2022/08/25 03:59:09;;;;;;;6.83;6.23;;;20.70;99.90;;;;;;5090826;28;20470;-41
2022/08/25 04:01:36;;;;;;;7.00;6.30;;;20.70;99.90;;;;;;5092035;28;20425;-38
2022/08/25 04:04:03;;;;;;;6.47;5.70;;;20.60;99.90;;;;;;5090227;28;20295;-39
2022/08/25 04:06:29;;;;;;;6.53;5.80;;;20.60;99.90;;;;;;5091944;28;20431;-39
2022/08/25 04:08:57;;;;;;;6.80;6.13;;;20.60;99.90;;;;;;5091455;28;20458;-39
2022/08/25 04:11:23;;;;;;;6.13;5.53;;;20.60;99.90;;;;;;5091854;28;20430;-39
2022/08/25 04:13:51;;;;;;;6.90;6.20;;;20.60;99.90;;;;;;5091919;28;20426;-41
2022/08/25 04:16:20;;;;;;;6.53;6.00;;;20.60;99.90;;;;;;5091782;28;21319;-39
2022/08/25 04:18:48;;;;;;;6.97;6.37;;;20.60;99.90;;;;;;5091042;28;20414;-38
2022/08/25 04:21:14;;;;;;;6.50;6.00;;;20.60;99.90;;;;;;5091704;28;20785;-40
2022/08/25 04:23:42;;;;;;;6.47;5.97;;;20.50;99.90;;;;;;5091626;28;21145;-38
2022/08/25 04:26:33;;;;;;;8.37;6.50;;;20.50;99.90;;;;;;5091564;28;20920;-40
2022/08/25 04:29:01;;;;;;;6.77;6.07;;;20.50;99.90;;;;;;5091210;28;20507;-40
2022/08/25 04:31:28;;;;;;;9.37;6.13;;;20.40;99.90;;;;;;5091612;28;20429;-38
2022/08/25 04:33:54;;;;;;;7.30;6.60;;;20.40;99.90;;;;;;5091438;28;20429;-46
2022/08/25 04:36:21;;;;;;;7.43;5.80;;;20.30;99.90;;;;;;5091426;28;20423;-42
2022/08/25 04:38:48;;;;;;;7.93;7.00;;;20.30;99.90;;;;;;5090524;28;20473;-39
2022/08/25 04:41:17;;;;;;;7.10;6.40;;;20.20;99.90;;;;;;5091170;28;20423;-44
2022/08/25 04:43:43;;;;;;;6.53;6.03;;;20.20;99.90;;;;;;5090871;28;20870;-40
2022/08/25 04:46:15;;;;;;;7.80;6.57;;;20.10;99.90;;;;;;5091067;28;20877;-42
2022/08/25 04:48:41;;;;;;;10.17;6.70;;;20.00;99.90;;;;;;5090470;28;20495;-39
2022/08/25 04:51:09;;;;;;;7.60;6.90;;;20.00;99.90;;;;;;5097531;28;20430;-39
2022/08/25 04:53:35;;;;;;;8.00;7.30;;;19.90;99.90;;;;;;5097515;28;20432;-42
2022/08/25 04:56:04;;;;;;;7.10;6.50;;;19.90;99.90;;;;;;5099080;27;20422;-40
2022/08/25 04:58:30;;;;;;;7.20;6.50;;;19.80;99.90;;;;;;5089084;28;20434;-41
2022/08/25 05:01:14;;;;;;;7.90;7.13;;;19.80;99.90;;;;;;5102884;28;20414;-39
2022/08/25 05:03:41;;;;;;;6.83;6.20;;;19.70;99.90;;;;;;5077220;28;20436;-42
2022/08/25 05:06:06;;;;;;;7.37;6.50;;;19.70;99.90;;;;;;5090741;28;20423;-39
2022/08/25 05:08:33;;;;;;;10.60;6.90;;;19.70;99.90;;;;;;5089477;28;20831;-41
2022/08/25 05:11:03;;;;;;;7.90;7.10;;;19.70;99.90;;;;;;5090604;28;21009;-40
2022/08/25 05:13:29;;;;;;;7.43;6.90;;;19.70;99.90;;;;;;5090827;28;20944;-39
2022/08/25 05:15:56;;;;;;;7.30;6.80;;;19.70;99.90;;;;;;5086765;28;20427;-42
2022/08/25 05:18:23;;;;;;;7.67;6.70;;;19.70;99.90;;;;;;5097730;28;20172;-40
2022/08/25 05:20:50;;;;;;;7.80;6.40;;;19.70;99.90;;;;;;5096259;28;20427;-40
2022/08/25 05:23:16;;;;;;;7.00;6.43;;;19.70;99.90;;;;;;5090117;28;20909;-39
2022/08/25 05:25:43;;;;;;;6.93;6.20;;;19.80;99.90;;;;;;5090252;28;20426;-39
2022/08/25 05:28:09;;;;;;;6.70;6.00;;;19.90;99.90;;;;;;5089685;28;20464;-42
2022/08/25 05:30:40;;;;;;;7.27;6.67;;;20.00;99.90;;;;;;5089810;28;20490;-38
2022/08/25 05:33:06;;;;;;;7.20;6.50;;;20.00;99.90;;;;;;5090116;28;20560;-38
2022/08/25 05:35:32;;;;;;;6.10;5.60;;;20.10;99.90;;;;;;5090199;28;20429;-41
2022/08/25 05:37:58;;;;;;;8.13;6.43;;;20.10;99.90;;;;;;5089202;28;20968;-39
2022/08/25 05:40:24;;;;;;;7.00;5.57;;;20.20;99.90;;;;;;5089962;28;20243;-42
2022/08/25 05:42:50;;;;;;;6.97;6.37;;;20.30;99.90;;;;;;5089990;28;20415;-38
2022/08/25 05:45:16;;;;;;;6.33;5.83;;;20.40;99.90;;;;;;5089702;28;20447;-42
2022/08/25 05:47:42;;;;;;;12.03;5.73;;;20.50;99.90;;;;;;5089171;28;20448;-41
2022/08/25 05:50:08;;;;;;;7.03;6.33;;;20.70;99.90;;;;;;5089319;28;20458;-38
2022/08/25 05:52:34;;;;;;;7.10;6.50;;;20.90;99.90;;;;;;5069681;28;20538;-38
2022/08/25 05:55:00;;;;;;;6.77;5.63;;;21.10;99.90;;;;;;5087437;28;20505;-38
2022/08/25 05:57:26;;;;;;;6.70;6.20;;;21.30;99.90;;;;;;5099306;28;20180;-40
2022/08/25 05:59:51;;;;;;;8.93;6.43;;;21.40;99.90;;;;;;5088133;28;20189;-41
2022/08/25 06:05:01;;;;;;;5.87;5.27;;;21.80;99.90;;;;;;5095736;28;20297;-39
2022/08/25 06:07:27;;;;;;;6.20;5.60;;;22.00;99.90;;;;;;5094754;28;20445;-42
2022/08/25 06:09:53;;;;;;;6.23;5.73;;;22.20;99.90;;;;;;5089189;28;20200;-43
2022/08/25 06:12:20;;;;;;;6.10;5.40;;;22.40;99.90;;;;;;5085563;28;20636;-42
2022/08/25 06:14:47;;;;;;;5.83;5.23;;;22.50;99.90;;;;;;5093338;28;20532;-40
2022/08/25 06:17:13;;;;;;;6.03;5.47;;;22.70;99.90;;;;;;5087250;28;20497;-38
2022/08/25 06:19:39;;;;;;;8.77;5.57;;;22.90;99.90;;;;;;5088882;28;20510;-41
2022/08/25 06:22:04;;;;;;;6.93;5.40;;;23.10;99.90;;;;;;5087548;28;20199;-43
2022/08/25 06:24:31;;;;;;;5.80;5.20;;;23.20;99.90;;;;;;5087609;28;20675;-43
2022/08/25 06:26:57;;;;;;;7.10;6.00;;;23.30;99.90;;;;;;5087474;28;20180;-41
2022/08/25 06:29:23;;;;;;;5.93;5.33;;;23.40;99.90;;;;;;5088373;28;20454;-42
2022/08/25 06:31:49;;;;;;;6.20;5.60;;;23.50;99.90;;;;;;5089191;28;20230;-39
2022/08/25 06:34:15;;;;;;;6.00;5.33;;;23.60;99.90;;;;;;5089392;28;20427;-41
2022/08/25 06:36:41;;;;;;;6.27;5.67;;;23.70;99.90;;;;;;5088740;28;20423;-40
2022/08/25 06:39:08;;;;;;;5.97;5.10;;;23.80;99.90;;;;;;5089313;28;20433;-39
2022/08/25 06:41:34;;;;;;;7.37;5.97;;;23.90;99.90;;;;;;5089166;28;20184;-38
2022/08/25 06:43:59;;;;;;;6.20;5.20;;;24.00;99.90;;;;;;5089239;28;20437;-40
2022/08/25 06:46:26;;;;;;;6.47;5.10;;;24.10;99.90;;;;;;5089160;28;20414;-40
2022/08/25 06:48:53;;;;;;;8.27;5.80;;;24.20;99.90;;;;;;5088332;28;20566;-38
2022/08/25 06:51:20;;;;;;;8.90;5.57;;;24.30;99.90;;;;;;5089110;28;20773;-42
2022/08/25 06:53:47;;;;;;;9.20;6.03;;;24.50;99.90;;;;;;5075641;28;20430;-42
2022/08/25 06:56:14;;;;;;;6.30;5.80;;;24.50;99.90;;;;;;5087619;28;20443;-41
2022/08/25 06:58:41;;;;;;;9.57;6.13;;;24.60;99.90;;;;;;5087952;28;20430;-42
2022/08/25 07:01:12;;;;;;;5.80;5.30;;;24.70;99.90;;;;;;5087044;28;20914;-45
2022/08/25 07:03:38;;;;;;;6.73;6.03;;;24.70;99.90;;;;;;5088958;28;20437;-42
2022/08/25 07:06:04;;;;;;;6.60;6.00;;;24.80;99.90;;;;;;5088197;28;20415;-39
2022/08/25 07:08:30;;;;;;;7.13;6.13;;;24.80;99.90;;;;;;5088171;28;20833;-41
2022/08/25 07:10:57;;;;;;;8.67;5.90;;;24.80;99.90;;;;;;5088253;28;20530;-42
2022/08/25 07:13:23;;;;;;;6.90;6.27;;;24.90;99.90;;;;;;5087871;28;20492;-42
2022/08/25 07:15:53;;;;;;;6.90;6.30;;;25.00;99.90;;;;;;5087995;28;20411;-42
2022/08/25 07:18:19;;;;;;;12.33;6.00;;;25.00;99.90;;;;;;5087638;28;20434;-40
2022/08/25 07:20:44;;;;;;;6.30;5.70;;;25.10;99.90;;;;;;5088878;28;20434;-41
2022/08/25 07:23:10;;;;;;;7.80;6.03;;;25.10;99.90;;;;;;5088743;28;20193;-40
2022/08/25 07:25:36;;;;;;;6.07;5.47;;;25.20;99.90;;;;;;5088777;28;20283;-39
2022/08/25 07:28:02;;;;;;;7.93;5.80;;;25.30;99.90;;;;;;5087968;28;20192;-38
2022/08/25 07:30:28;;;;;;;7.60;6.20;;;25.30;99.90;;;;;;5088814;28;20208;-45
2022/08/25 07:32:54;;;;;;;6.07;5.57;;;25.40;99.90;;;;;;5088662;28;20513;-40
2022/08/25 07:35:22;;;;;;;5.77;5.27;;;25.40;99.90;;;;;;5089033;28;20529;-42
2022/08/25 07:37:55;;;;;;;6.80;5.87;;;25.40;99.90;;;;;;5088177;28;20184;-45
2022/08/25 07:40:25;;;;;;;6.27;5.67;;;25.50;99.90;;;;;;5092478;28;20871;-41
2022/08/25 07:42:54;;;;;;;8.13;5.30;;;25.50;99.90;;;;;;5092214;28;20414;-41
2022/08/25 07:45:28;;;;;;;7.80;5.47;;;25.50;99.90;;;;;;5092532;28;20480;-39
2022/08/25 07:47:54;;;;;;;7.03;5.53;;;25.50;99.90;;;;;;5092048;28;20421;-43
2022/08/25 07:50:20;;;;;;;8.53;6.40;;;25.50;99.90;;;;;;5092277;28;20560;-40
2022/08/25 07:52:46;;;;;;;7.00;6.30;;;25.50;99.90;;;;;;5092397;28;20428;-40
2022/08/25 07:55:12;;;;;;;7.80;6.00;;;25.60;99.90;;;;;;5092073;28;20433;-42
2022/08/25 07:57:41;;;;;;;7.47;5.90;;;25.60;99.90;;;;;;5091050;28;20430;-42
2022/08/25 08:00:09;;;;;;;7.00;5.60;;;25.70;99.90;;;;;;5090862;28;20902;-41
2022/08/25 08:02:37;;;;;;;6.70;6.00;;;25.60;99.90;;;;;;5092396;28;21102;-42
2022/08/25 08:05:03;;;;;;;6.40;5.90;;;25.70;99.70;;;;;;5092001;28;20442;-39
2022/08/25 08:07:30;;;;;;;6.43;5.90;;;25.70;99.90;;;;;;5091633;28;20487;-40
2022/08/25 08:09:57;;;;;;;7.00;6.33;;;25.60;99.80;;;;;;5091638;28;21086;-40
2022/08/25 08:12:23;;;;;;;6.80;6.20;;;25.60;99.90;;;;;;5092136;28;20434;-43
2022/08/25 08:14:50;;;;;;;6.53;5.90;;;25.60;99.80;;;;;;5092055;28;20446;-46
2022/08/25 08:17:17;;;;;;;9.20;6.43;;;25.60;99.90;;;;;;5091570;28;20865;-44
2022/08/25 08:19:43;;;;;;;6.40;5.87;;;25.60;99.90;;;;;;5091770;28;20459;-38
2022/08/25 08:22:13;;;;;;;6.30;5.70;;;25.70;99.90;;;;;;5091851;28;21042;-42
2022/08/25 08:24:40;;;;;;;7.90;6.23;;;25.70;99.90;;;;;;5091770;28;20440;-40
2022/08/25 08:27:07;;;;;;;6.47;5.87;;;25.70;99.90;;;;;;5091270;28;20426;-40
2022/08/25 08:29:37;;;;;;;7.30;6.33;;;25.70;99.90;;;;;;5091520;28;20469;-43
2022/08/25 08:32:04;;;;;;;6.73;6.03;;;25.80;99.90;;;;;;5091901;28;20422;-42
2022/08/25 08:34:31;;;;;;;7.00;6.40;;;25.80;99.90;;;;;;5090421;28;20954;-39
2022/08/25 08:36:58;;;;;;;7.10;6.50;;;25.90;99.70;;;;;;5090866;28;20518;-41
2022/08/25 08:39:25;;;;;;;8.27;6.67;;;25.80;99.70;;;;;;5091421;28;21139;-42
2022/08/25 08:42:22;;;;;;;7.70;6.50;;;25.90;99.90;;;;;;5091657;28;20425;-41
2022/08/25 08:45:25;;;;;;;10.03;7.17;;;26.00;99.40;;;;;;5091406;28;20480;-39
2022/08/25 08:48:22;;;;;;;9.10;6.33;;;26.00;99.70;;;;;;5090809;28;20430;-43
2022/08/25 08:51:00;;;;;;;7.00;6.33;;;26.00;99.80;;;;;;5089772;28;20527;-38
2022/08/25 08:53:37;;;;;;;10.17;6.43;;;26.00;99.90;;;;;;5076064;28;20431;-41
2022/08/25 08:56:15;;;;;;;9.20;6.07;;;26.10;99.90;;;;;;5090332;28;20592;-38
2022/08/25 08:58:43;;;;;;;7.90;6.40;;;26.20;99.70;;;;;;5090509;28;20482;-40
2022/08/25 09:01:12;;;;;;;8.17;7.37;;;26.30;99.90;;;;;;5091079;28;20469;-41
2022/08/25 09:03:45;;;;;;;8.20;6.60;;;26.30;99.90;;;;;;5090902;28;20426;-39
2022/08/25 09:06:17;;;;;;;7.97;7.17;;;26.40;99.90;;;;;;5090611;28;20434;-43
2022/08/25 09:08:43;;;;;;;8.13;6.77;;;26.40;99.90;;;;;;5090643;28;20423;-41
2022/08/25 09:11:32;;;;;;;7.43;6.70;;;26.50;99.70;;;;;;5090995;28;20771;-41
2022/08/25 09:14:19;;;;;;;6.83;6.23;;;26.60;99.50;;;;;;5091179;28;20465;-44
2022/08/25 09:16:59;;;;;;;8.67;6.53;;;26.70;98.80;;;;;;5090348;28;20430;-40
2022/08/25 09:19:55;;;;;;;6.33;5.83;;;26.90;98.50;;;;;;5090705;28;20972;-39
2022/08/25 09:22:55;;;;;;;7.10;6.50;;;26.90;98.80;;;;;;5090567;28;20460;-40
2022/08/25 09:25:39;;;;;;;7.63;6.67;;;27.00;97.70;;;;;;5090574;28;20429;-39
2022/08/25 09:28:24;;;;;;;7.07;6.37;;;27.10;97.90;;;;;;5090130;28;20422;-43
2022/08/25 09:31:08;;;;;;;7.27;6.17;;;27.10;97.50;;;;;;5090321;28;20541;-39
2022/08/25 09:33:34;;;;;;;7.33;6.57;;;27.30;97.80;;;;;;5090599;28;20458;-40
2022/08/25 09:35:59;;;;;;;8.10;6.87;;;27.40;98.10;;;;;;5090482;28;20959;-42
2022/08/25 09:38:28;;;;;;;8.83;6.50;;;27.50;99.20;;;;;;5088412;28;20188;-38
2022/08/25 09:40:57;;;;;;;9.00;6.87;;;27.70;97.30;;;;;;5090308;28;20195;-38
2022/08/25 09:43:30;;;;;;;7.00;6.40;;;27.80;96.90;;;;;;5090153;28;20491;-40
2022/08/25 09:46:14;;;;;;;6.43;5.93;;;28.00;97.60;;;;;;5090367;28;20433;-45
2022/08/25 09:48:49;;;;;;;7.10;6.40;;;28.10;96.90;;;;;;5089394;28;20414;-42
2022/08/25 09:51:30;;;;;;;7.13;6.53;;;28.30;95.60;;;;;;5090036;28;20430;-41
2022/08/25 09:54:03;;;;;;;7.03;6.43;;;28.30;96.10;;;;;;5089616;28;20925;-40
2022/08/25 09:56:32;;;;;;;9.80;7.07;;;28.40;97.00;;;;;;5087700;28;20445;-42
2022/08/25 09:59:18;;;;;;;7.67;6.87;;;28.50;97.00;;;;;;5090004;28;20753;-42
2022/08/25 10:01:56;;;;;;;7.67;6.53;;;28.60;95.60;;;;;;5089729;28;20426;-44
2022/08/25 10:04:27;;;;;;;7.93;7.20;;;28.70;96.30;;;;;;5088064;28;20944;-38
2022/08/25 10:06:53;;;;;;;7.80;7.07;;;28.90;95.40;;;;;;5089481;28;20426;-39
2022/08/25 10:09:41;;;;;;;9.00;6.77;;;29.00;95.30;;;;;;5088372;28;20465;-40
2022/08/25 10:12:20;;;;;;;6.63;6.13;;;29.00;93.70;;;;;;5089965;28;20422;-43
2022/08/25 10:14:46;;;;;;;6.30;5.70;;;29.10;93.60;;;;;;5088308;28;20426;-42
2022/08/25 10:17:12;;;;;;;6.13;5.63;;;29.20;93.10;;;;;;5089473;28;20805;-40
2022/08/25 10:19:38;;;;;;;5.87;5.33;;;29.20;93.30;;;;;;5089635;28;20429;-43
2022/08/25 10:22:33;;;;;;;5.67;5.17;;;29.20;91.70;;;;;;5088594;28;20192;-41
2022/08/25 10:24:59;;;;;;;6.03;5.20;;;29.30;90.90;;;;;;5086591;28;20196;-41
2022/08/25 10:27:44;;;;;;;4.57;4.10;;;29.40;90.80;;;;;;5088843;28;20423;-41
2022/08/25 10:30:22;;;;;;;6.10;4.40;;;29.50;85.10;;;;;;5089644;28;20469;-41
2022/08/25 10:32:50;;;;;;;5.77;5.27;;;29.60;83.10;;;;;;5089698;28;20430;-42
2022/08/25 10:35:21;;;;;;;6.63;6.07;;;29.60;86.40;;;;;;5089575;28;20429;-38
2022/08/25 10:38:10;;;;;;;5.30;4.80;;;29.70;85.00;;;;;;5088931;28;20425;-44
2022/08/25 10:40:50;;;;;;;5.83;4.97;;;29.70;83.00;;;;;;5083695;28;20484;-41
2022/08/25 10:43:34;;;;;;;5.13;4.73;;;29.80;83.80;;;;;;5089823;28;20414;-44
2022/08/25 10:46:14;;;;;;;5.40;5.00;;;29.80;84.00;;;;;;5089405;28;20751;-38
2022/08/25 10:49:05;;;;;;;6.83;5.07;;;29.80;81.30;;;;;;5089091;28;20414;-39
2022/08/25 10:51:30;;;;;;;5.10;4.70;;;29.90;82.70;;;;;;5089414;28;20418;-38
2022/08/25 10:54:09;;;;;;;5.30;4.90;;;30.00;82.80;;;;;;5089349;28;20425;-38
2022/08/25 10:56:40;;;;;;;4.53;4.13;;;30.10;81.40;;;;;;5087433;28;20195;-39
2022/08/25 10:59:21;;;;;;;5.27;4.87;;;30.10;83.20;;;;;;5089335;28;20430;-44
2022/08/25 11:01:52;;;;;;;5.13;4.73;;;30.20;81.40;;;;;;5089319;28;20457;-39
2022/08/25 11:04:25;;;;;;;5.40;5.00;;;30.30;80.50;;;;;;5089175;28;20442;-40
2022/08/25 11:07:04;;;;;;;4.73;4.30;;;30.40;86.00;;;;;;5088407;28;20491;-43
2022/08/25 11:09:38;;;;;;;6.73;4.67;;;30.40;78.40;;;;;;5087865;28;20466;-39
2022/08/25 11:12:09;;;;;;;6.50;5.03;;;30.40;78.60;;;;;;5089327;28;20503;-42
2022/08/25 11:14:45;;;;;;;5.47;4.97;;;30.50;79.80;;;;;;5091753;28;21057;-43
2022/08/25 11:17:25;;;;;;;5.53;5.00;;;30.50;80.60;;;;;;5092459;28;20492;-42
2022/08/25 11:19:55;;;;;;;5.83;4.97;;;30.50;80.00;;;;;;5093091;28;20425;-40
2022/08/25 11:22:41;;;;;;;5.07;4.60;;;30.60;78.40;;;;;;5093170;28;20785;-43
2022/08/25 11:25:28;;;;;;;5.50;5.00;;;30.60;77.40;;;;;;5091747;28;20926;-39
2022/08/25 11:28:14;;;;;;;5.73;4.90;;;30.60;76.90;;;;;;5092162;28;20426;-38
2022/08/25 11:30:41;;;;;;;5.10;4.60;;;30.80;78.40;;;;;;5092822;28;20458;-39
2022/08/25 11:33:12;;;;;;;5.00;4.60;;;30.80;78.90;;;;;;5093084;28;20434;-39
2022/08/25 11:35:47;;;;;;;5.30;4.80;;;30.90;77.70;;;;;;5092849;28;20443;-38
2022/08/25 11:38:40;;;;;;;5.93;5.27;;;31.00;76.10;;;;;;5090787;28;20978;-42
2022/08/25 11:41:29;;;;;;;7.03;4.90;;;31.00;75.50;;;;;;5092881;28;20493;-38
2022/08/25 11:44:24;;;;;;;4.80;4.40;;;31.10;72.80;;;;;;5092681;28;20455;-43
2022/08/25 11:46:59;;;;;;;5.30;4.70;;;31.00;70.40;;;;;;5052212;28;20427;-44
2022/08/25 11:49:49;;;;;;;6.13;4.63;;;31.00;76.40;;;;;;5091992;28;20464;-39
2022/08/25 11:52:33;;;;;;;5.30;4.90;;;31.10;78.20;;;;;;5091330;28;20501;-39
2022/08/25 11:55:22;;;;;;;4.80;4.40;;;31.10;71.30;;;;;;5092193;28;20572;-41
2022/08/25 11:57:50;;;;;;;5.77;4.70;;;31.20;74.00;;;;;;5090489;28;20762;-39
2022/08/25 12:00:19;;;;;;;6.77;5.03;;;31.20;71.70;;;;;;5090943;28;20441;-43
2022/08/25 12:02:51;;;;;;;6.07;4.97;;;31.30;72.20;;;;;;5092368;28;20422;-39
2022/08/25 12:05:20;;;;;;;5.00;4.60;;;31.20;70.30;;;;;;5091935;28;20483;-41
2022/08/25 12:07:48;;;;;;;5.40;4.70;;;31.30;71.60;;;;;;5091970;28;20808;-41
2022/08/25 12:10:24;;;;;;;5.33;4.80;;;31.30;70.60;;;;;;5090819;28;21077;-39
2022/08/25 12:12:58;;;;;;;5.53;4.93;;;31.40;72.40;;;;;;5092248;28;20746;-40
2022/08/25 12:15:28;;;;;;;5.40;5.00;;;31.40;68.10;;;;;;5092236;28;20489;-43
2022/08/25 12:18:14;;;;;;;5.40;5.00;;;31.50;69.20;;;;;;5091011;28;20427;-40
2022/08/25 12:20:52;;;;;;;5.30;4.90;;;31.40;70.70;;;;;;5090640;28;20434;-39
2022/08/25 12:23:37;;;;;;;5.40;4.90;;;31.40;68.10;;;;;;5090718;28;20484;-41
2022/08/25 12:26:19;;;;;;;5.37;4.97;;;31.40;69.40;;;;;;5091679;28;20418;-47
2022/08/25 12:28:48;;;;;;;5.00;4.60;;;31.40;68.40;;;;;;5089838;28;20441;-39
2022/08/25 12:31:22;;;;;;;5.43;4.97;;;31.30;67.70;;;;;;5091715;28;20437;-38
2022/08/25 12:34:11;;;;;;;5.57;5.07;;;31.30;71.10;;;;;;5091755;28;20425;-40
2022/08/25 12:36:38;;;;;;;5.23;4.83;;;31.30;68.60;;;;;;5073055;28;20436;-39
2022/08/25 12:39:27;;;;;;;5.63;5.07;;;31.40;69.00;;;;;;5073367;28;20438;-44
2022/08/25 12:42:01;;;;;;;5.30;4.80;;;31.50;71.30;;;;;;5090499;28;20806;-43
2022/08/25 12:44:35;;;;;;;6.30;5.37;;;31.50;69.20;;;;;;5091587;28;21043;-39
2022/08/25 12:47:27;;;;;;;5.87;5.47;;;31.40;68.80;;;;;;5090702;28;20450;-42
2022/08/25 12:50:13;;;;;;;6.73;4.97;;;31.50;70.70;;;;;;5091456;28;20503;-38
2022/08/25 12:52:39;;;;;;;5.53;5.03;;;31.40;67.50;;;;;;5082258;28;20428;-39
2022/08/25 12:55:10;;;;;;;4.90;4.60;;;31.40;70.60;;;;;;5087325;28;20509;-41
2022/08/25 12:57:45;;;;;;;5.30;4.83;;;31.50;69.80;;;;;;5089510;28;20461;-42
2022/08/25 13:00:21;;;;;;;6.17;5.40;;;31.50;70.70;;;;;;5091126;28;20439;-44
2022/08/25 13:03:24;;;;;;;9.87;6.30;;;31.50;72.70;;;;;;5089996;28;20780;-40
2022/08/25 13:06:40;;;;;;;5.90;5.47;;;31.50;74.60;;;;;;5091094;28;20855;-38
2022/08/25 13:09:36;;;;;;;6.60;6.00;;;31.50;74.80;;;;;;5067304;28;20465;-39
2022/08/25 13:12:13;;;;;;;5.70;5.30;;;31.70;73.60;;;;;;5090941;28;20473;-42